createdAt,value
2023-01-19T00:01:50.874Z,60.20
2023-01-19T00:04:21.761Z,65.40
2023-01-19T00:06:52.141Z,57.80
2023-01-19T00:09:22.884Z,60.00
2023-01-19T00:14:23.292Z,50.30
2023-01-19T00:21:53.053Z,52.70
2023-01-19T00:24:23.617Z,50.90
2023-01-19T00:26:53.999Z,55.60
2023-01-19T00:29:24.282Z,58.00
2023-01-19T00:31:54.714Z,58.80
2023-01-19T00:34:24.997Z,56.20
2023-01-19T00:36:55.458Z,49.50
2023-01-19T00:39:26.244Z,71.20
2023-01-19T00:42:14.077Z,66.20
2023-01-19T00:44:44.503Z,65.30
2023-01-19T00:47:15.150Z,67.30
2023-01-19T00:49:45.456Z,66.80
2023-01-19T00:52:15.810Z,66.50
2023-01-19T00:54:46.904Z,60.30
2023-01-19T00:57:18.866Z,59.30
2023-01-19T00:59:49.316Z,62.90
2023-01-19T01:02:19.852Z,60.60
2023-01-19T01:04:54.513Z,63.30
2023-01-19T01:07:25.065Z,60.30
2023-01-19T01:09:56.465Z,67.60
2023-01-19T01:12:26.970Z,55.40
2023-01-19T01:14:57.632Z,56.70
2023-01-19T01:17:27.949Z,58.00
2023-01-19T01:19:58.877Z,57.80
2023-01-19T01:22:29.520Z,62.30
2023-01-19T01:25:00.191Z,65.10
2023-01-19T01:27:30.476Z,66.20
2023-01-19T01:30:00.822Z,66.80
2023-01-19T01:32:31.730Z,69.80
2023-01-19T01:35:02.044Z,60.10
2023-01-19T01:37:32.770Z,66.90
2023-01-19T01:40:03.685Z,64.90
2023-01-19T01:42:35.014Z,61.90
2023-01-19T01:45:08.215Z,65.90
2023-01-19T01:47:43.653Z,58.00
2023-01-19T01:50:16.660Z,58.00
2023-01-19T01:53:06.412Z,62.60
2023-01-19T01:55:40.870Z,59.70
2023-01-19T01:58:12.506Z,57.90
2023-01-19T02:01:00.651Z,60.30
2023-01-19T02:03:33.148Z,58.10
2023-01-19T02:06:07.800Z,61.60
2023-01-19T02:08:59.946Z,60.00
2023-01-19T02:11:48.586Z,62.50
2023-01-19T02:14:19.225Z,76.30
2023-01-19T02:16:49.848Z,77.50
2023-01-19T02:19:26.130Z,66.90
2023-01-19T02:22:01.519Z,69.70
2023-01-19T02:24:32.386Z,63.10
2023-01-19T02:27:03.194Z,63.10
2023-01-19T02:29:34.439Z,76.80
2023-01-19T02:32:06.552Z,76.50
2023-01-19T02:34:37.163Z,71.80
2023-01-19T02:37:11.662Z,75.90
2023-01-19T02:39:45.126Z,79.00
2023-01-19T02:42:18.355Z,76.50
2023-01-19T02:44:50.949Z,76.40
2023-01-19T02:47:21.532Z,79.20
2023-01-19T02:49:58.174Z,70.60
2023-01-19T02:52:29.577Z,67.60
2023-01-19T02:57:47.728Z,68.00
2023-01-19T03:00:26.343Z,61.50
2023-01-19T03:03:09.415Z,71.70
2023-01-19T03:05:54.248Z,68.60
2023-01-19T03:08:34.024Z,63.10
2023-01-19T03:11:06.501Z,63.40
2023-01-19T03:13:45.024Z,64.70
2023-01-19T03:16:19.187Z,58.60
2023-01-19T03:18:54.859Z,65.30
2023-01-19T03:21:29.108Z,59.90
2023-01-19T03:24:03.549Z,61.70
2023-01-19T03:26:37.716Z,57.90
2023-01-19T03:29:09.727Z,56.90
2023-01-19T03:31:41.144Z,60.20
2023-01-19T03:34:14.008Z,56.70
2023-01-19T03:36:46.875Z,56.70
2023-01-19T03:39:20.771Z,58.30
2023-01-19T03:41:53.754Z,64.50
2023-01-19T03:44:24.378Z,55.40
2023-01-19T03:46:55.044Z,57.00
2023-01-19T03:49:25.945Z,49.40
2023-01-19T03:51:58.604Z,52.10
2023-01-19T03:54:29.297Z,55.30
2023-01-19T03:56:59.751Z,47.70
2023-01-19T03:59:30.390Z,49.60
2023-01-19T04:02:01.081Z,51.10
2023-01-19T04:04:31.792Z,52.90
2023-01-19T04:07:02.515Z,48.40
2023-01-19T04:09:33.881Z,43.70
2023-01-19T04:12:07.678Z,50.10
2023-01-19T04:14:38.700Z,47.90
2023-01-19T04:17:10.124Z,48.40
2023-01-19T04:19:40.787Z,56.30
2023-01-19T04:22:11.621Z,62.50
2023-01-19T04:24:42.456Z,60.40
2023-01-19T04:27:15.281Z,56.70
2023-01-19T04:29:46.823Z,56.00
2023-01-19T04:32:18.081Z,65.20
2023-01-19T04:34:49.100Z,57.90
2023-01-19T04:37:20.883Z,61.20
2023-01-19T04:39:51.942Z,56.70
2023-01-19T04:42:22.905Z,53.20
2023-01-19T04:44:53.821Z,51.50
2023-01-19T04:47:24.481Z,51.10
2023-01-19T04:49:55.170Z,50.80
2023-01-19T04:52:26.453Z,49.90
2023-01-19T04:54:57.029Z,49.00
2023-01-19T04:57:27.765Z,46.20
2023-01-19T04:59:58.631Z,45.90
2023-01-19T05:02:31.606Z,50.70
2023-01-19T05:05:03.019Z,50.90
2023-01-19T05:07:33.368Z,52.60
2023-01-19T05:10:03.895Z,57.50
2023-01-19T05:12:34.767Z,55.40
2023-01-19T05:15:10.682Z,55.30
2023-01-19T05:17:41.342Z,52.30
2023-01-19T05:20:16.271Z,53.10
2023-01-19T05:22:50.918Z,53.60
2023-01-19T05:25:22.043Z,54.20
2023-01-19T05:30:22.334Z,52.30
2023-01-19T05:32:52.815Z,54.00
2023-01-19T05:35:35.322Z,50.20
2023-01-19T05:38:06.862Z,54.40
2023-01-19T05:40:37.348Z,50.10
2023-01-19T05:43:08.359Z,49.50
2023-01-19T05:45:39.206Z,53.80
2023-01-19T05:48:10.483Z,47.60
2023-01-19T05:50:41.537Z,53.50
2023-01-19T05:53:13.694Z,55.90
2023-01-19T05:55:44.764Z,51.50
2023-01-19T05:58:15.295Z,53.00
2023-01-19T06:00:45.733Z,60.80
2023-01-19T06:03:16.135Z,55.40
2023-01-19T06:05:46.587Z,49.10
2023-01-19T06:08:17.386Z,54.40
2023-01-19T06:10:48.414Z,54.40
2023-01-19T06:13:19.429Z,53.10
2023-01-19T06:15:50.047Z,55.10
2023-01-19T06:18:20.525Z,53.00
2023-01-19T06:20:52.251Z,48.20
2023-01-19T06:23:22.895Z,52.30
2023-01-19T06:25:53.431Z,51.00
2023-01-19T06:28:24.247Z,47.30
2023-01-19T06:30:56.076Z,52.50
2023-01-19T06:33:28.034Z,48.70
2023-01-19T06:35:58.636Z,50.80
2023-01-19T06:40:59.448Z,46.70
2023-01-19T06:43:31.017Z,51.90
2023-01-19T06:46:02.129Z,47.80
2023-01-19T06:48:32.640Z,47.00
2023-01-19T06:51:03.351Z,50.90
2023-01-19T06:53:33.748Z,53.30
2023-01-19T06:56:04.842Z,43.80
2023-01-19T06:58:36.019Z,46.10
2023-01-19T07:01:07.864Z,51.20
2023-01-19T07:03:38.752Z,47.80
2023-01-19T07:06:09.983Z,54.30
2023-01-19T07:08:40.736Z,50.80
2023-01-19T07:11:25.879Z,57.60
2023-01-19T07:14:03.827Z,57.10
2023-01-19T07:16:34.212Z,55.40
2023-01-19T07:19:04.740Z,54.10
2023-01-19T07:21:35.362Z,54.70
2023-01-19T07:24:06.269Z,57.60
2023-01-19T07:26:36.731Z,54.20
2023-01-19T07:29:07.646Z,57.60
2023-01-19T07:31:38.106Z,53.80
2023-01-19T07:34:08.380Z,60.80
2023-01-19T07:36:39.130Z,56.90
2023-01-19T07:39:10.009Z,57.10
2023-01-19T07:41:40.989Z,63.10
2023-01-19T07:44:15.090Z,59.90
2023-01-19T07:46:45.518Z,58.50
2023-01-19T07:49:16.157Z,61.20
2023-01-19T07:51:46.983Z,61.80
2023-01-19T07:54:17.433Z,61.10
2023-01-19T07:56:47.815Z,62.70
2023-01-19T07:59:18.130Z,60.50
2023-01-19T08:01:49.244Z,59.60
2023-01-19T08:04:20.207Z,59.60
2023-01-19T08:06:50.573Z,61.80
2023-01-19T08:09:21.191Z,62.70
2023-01-19T08:11:51.495Z,60.60
2023-01-19T08:14:21.685Z,62.70
2023-01-19T08:19:21.788Z,50.20
2023-01-19T08:21:52.146Z,63.40
2023-01-19T08:24:25.689Z,60.80
2023-01-19T08:27:03.495Z,60.50
2023-01-19T08:29:35.343Z,61.30
2023-01-19T08:32:07.256Z,58.80
2023-01-19T08:34:37.917Z,59.40
2023-01-19T08:37:08.437Z,59.30
2023-01-19T08:39:38.765Z,60.10
2023-01-19T08:42:09.695Z,61.60
2023-01-19T08:44:49.678Z,59.30
2023-01-19T08:47:27.920Z,58.10
2023-01-19T08:49:58.732Z,57.20
2023-01-19T08:52:30.530Z,58.50
2023-01-19T08:55:01.571Z,57.50
2023-01-19T08:57:32.019Z,58.70
2023-01-19T09:00:04.487Z,54.80
2023-01-19T09:02:35.461Z,49.60
2023-01-19T09:05:07.338Z,54.40
2023-01-19T09:07:38.115Z,49.00
2023-01-19T09:10:11.416Z,52.20
2023-01-19T09:12:43.539Z,49.80
2023-01-19T09:15:15.079Z,46.70
2023-01-19T09:17:45.464Z,64.40
2023-01-19T09:20:15.351Z,57.80
2023-01-19T09:22:47.322Z,62.90
2023-01-19T09:25:17.879Z,56.70
2023-01-19T09:27:48.278Z,54.20
2023-01-19T09:30:19.804Z,61.70
2023-01-19T09:32:50.266Z,62.20
2023-01-19T09:35:21.788Z,61.70
2023-01-19T09:37:52.515Z,59.80
2023-01-19T09:40:23.073Z,55.50
2023-01-19T09:42:59.071Z,57.90
2023-01-19T09:45:35.468Z,57.20
2023-01-19T09:48:11.611Z,54.20
2023-01-19T09:50:46.469Z,59.80
2023-01-19T09:53:21.293Z,52.20
2023-01-19T09:55:51.700Z,56.20
2023-01-19T10:00:56.340Z,54.50
2023-01-19T10:03:27.441Z,51.80
2023-01-19T10:06:03.314Z,50.40
2023-01-19T10:08:38.604Z,49.70
2023-01-19T10:11:18.288Z,40.70
2023-01-19T10:13:52.126Z,49.40
2023-01-19T10:16:31.374Z,56.40
2023-01-19T10:19:12.201Z,51.50
2023-01-19T10:21:44.161Z,58.10
2023-01-19T10:24:20.430Z,64.60
2023-01-19T10:26:52.628Z,62.80
2023-01-19T10:29:25.108Z,68.40
2023-01-19T10:32:02.296Z,60.20
2023-01-19T10:34:33.429Z,57.50
2023-01-19T10:37:06.492Z,56.80
2023-01-19T10:39:38.736Z,63.00
2023-01-19T10:42:16.100Z,55.20
2023-01-19T10:44:46.975Z,53.30
2023-01-19T10:47:19.038Z,49.20
2023-01-19T10:49:50.427Z,49.40
2023-01-19T10:52:28.682Z,48.40
2023-01-19T10:54:59.852Z,48.10
2023-01-19T10:57:33.067Z,48.10
2023-01-19T11:00:04.899Z,47.00
2023-01-19T11:02:36.289Z,47.30
2023-01-19T11:05:23.629Z,50.90
2023-01-19T11:07:54.176Z,46.70
2023-01-19T11:10:26.507Z,55.50
2023-01-19T11:13:07.366Z,54.00
2023-01-19T11:15:43.654Z,56.60
2023-01-19T11:18:28.111Z,52.30
2023-01-19T11:21:00.829Z,47.10
2023-01-19T11:23:33.599Z,54.90
2023-01-19T11:26:06.890Z,49.50
2023-01-19T11:28:38.636Z,55.70
2023-01-19T11:31:20.411Z,52.60
2023-01-19T11:33:52.702Z,59.60
2023-01-19T11:36:24.942Z,58.80
2023-01-19T11:38:57.555Z,59.90
2023-01-19T11:41:31.082Z,58.30
2023-01-19T11:44:10.527Z,53.70
2023-01-19T11:46:44.079Z,63.10
2023-01-19T11:49:19.886Z,60.60
2023-01-19T11:51:57.410Z,64.90
2023-01-19T11:54:34.891Z,60.10
2023-01-19T11:57:13.370Z,65.10
2023-01-19T11:59:43.731Z,67.80
2023-01-19T12:02:22.323Z,65.00
2023-01-19T12:04:54.998Z,65.00
2023-01-19T12:07:29.602Z,67.00
2023-01-19T12:10:15.243Z,69.80
2023-01-19T12:12:46.591Z,61.90
2023-01-19T12:15:36.290Z,63.20
2023-01-19T12:18:13.739Z,58.90
2023-01-19T12:20:47.249Z,58.00
2023-01-19T12:23:26.338Z,65.30
2023-01-19T12:26:07.258Z,57.80
2023-01-19T12:28:40.251Z,53.00
2023-01-19T12:31:11.295Z,64.40
2023-01-19T12:33:42.255Z,65.30
2023-01-19T12:36:36.645Z,61.10
2023-01-19T12:39:19.462Z,65.40
2023-01-19T12:41:50.948Z,69.40
2023-01-19T12:44:31.235Z,65.30
2023-01-19T12:47:19.733Z,61.70
2023-01-19T12:49:52.554Z,68.40
2023-01-19T12:52:27.866Z,68.40
2023-01-19T12:55:02.787Z,69.30
2023-01-19T12:57:34.960Z,63.80
2023-01-19T13:00:08.291Z,75.10
2023-01-19T13:02:46.953Z,67.00
2023-01-19T13:05:24.077Z,69.20
2023-01-19T13:08:19.414Z,77.30
2023-01-19T13:11:16.215Z,74.90
2023-01-19T13:14:04.987Z,49.20
2023-01-19T13:17:02.074Z,69.60
2023-01-19T13:19:42.463Z,73.40
2023-01-19T13:23:02.394Z,75.70
2023-01-19T13:25:35.964Z,80.00
2023-01-19T13:28:12.592Z,77.60
2023-01-19T13:31:03.341Z,74.40
2023-01-19T13:33:41.237Z,73.20
2023-01-19T13:36:21.117Z,76.60
2023-01-19T13:38:52.577Z,73.60
2023-01-19T13:41:26.974Z,76.40
2023-01-19T13:44:01.877Z,79.90
2023-01-19T13:46:33.621Z,81.80
2023-01-19T13:49:10.503Z,75.10
2023-01-19T13:51:40.803Z,77.80
2023-01-19T13:54:17.464Z,78.90
2023-01-19T13:56:50.474Z,76.50
2023-01-19T13:59:21.056Z,83.40
2023-01-19T14:01:54.455Z,82.00
2023-01-19T14:04:30.392Z,73.50
2023-01-19T14:07:02.756Z,91.60
2023-01-19T14:09:33.393Z,95.50
2023-01-19T14:12:10.494Z,92.70
2023-01-19T14:14:41.056Z,88.00
2023-01-19T14:17:23.830Z,91.40
2023-01-19T14:19:55.491Z,85.60
2023-01-19T14:22:40.773Z,82.40
2023-01-19T14:25:30.939Z,90.10
2023-01-19T14:28:28.671Z,86.20
2023-01-19T14:31:00.656Z,78.50
2023-01-19T14:33:42.011Z,88.50
2023-01-19T14:36:24.061Z,88.90
2023-01-19T14:38:55.398Z,86.80
2023-01-19T14:41:30.186Z,92.40
2023-01-19T14:44:01.899Z,90.00
2023-01-19T14:46:32.639Z,84.70
2023-01-19T14:49:05.463Z,95.70
2023-01-19T14:51:36.631Z,88.70
2023-01-19T14:54:12.794Z,90.00
2023-01-19T14:56:44.663Z,93.60
2023-01-19T14:59:15.561Z,98.60
2023-01-19T15:01:46.530Z,100.10
2023-01-19T15:06:47.027Z,96.30
2023-01-19T15:09:17.788Z,94.60
2023-01-19T15:11:49.038Z,98.30
2023-01-19T15:14:21.868Z,100.00
2023-01-19T15:16:52.401Z,93.90
2023-01-19T15:19:22.782Z,95.30
2023-01-19T15:21:59.920Z,93.20
2023-01-19T15:24:30.666Z,87.10
2023-01-19T15:27:02.376Z,76.50
2023-01-19T15:29:33.873Z,84.80
2023-01-19T15:32:04.580Z,93.50
2023-01-19T15:34:37.591Z,75.10
2023-01-19T15:37:08.525Z,78.60
2023-01-19T15:39:39.750Z,84.70
2023-01-19T15:42:15.792Z,102.50
2023-01-19T15:44:46.187Z,73.80
2023-01-19T15:47:16.728Z,81.90
2023-01-19T15:49:47.841Z,79.00
2023-01-19T15:52:19.216Z,79.40
2023-01-19T15:54:52.032Z,91.20
2023-01-19T15:57:25.314Z,92.60
2023-01-19T15:59:59.267Z,94.50
2023-01-19T16:02:34.130Z,85.10
2023-01-19T16:05:05.000Z,81.70
2023-01-19T16:07:36.211Z,87.90
2023-01-19T16:10:09.348Z,70.80
2023-01-19T16:12:40.062Z,92.00
2023-01-19T16:15:12.723Z,91.40
2023-01-19T16:17:44.567Z,77.60
2023-01-19T16:20:15.849Z,84.70
2023-01-19T16:22:46.430Z,88.90
2023-01-19T16:25:17.903Z,88.80
2023-01-19T16:27:48.312Z,88.10
2023-01-19T16:30:19.725Z,80.80
2023-01-19T16:32:50.259Z,87.90
2023-01-19T16:35:20.655Z,96.90
2023-01-19T16:37:52.924Z,89.60
2023-01-19T16:40:23.624Z,80.70
2023-01-19T16:42:54.431Z,88.60
2023-01-19T16:45:25.073Z,85.00
2023-01-19T16:47:55.747Z,95.90
2023-01-19T16:50:26.322Z,99.80
2023-01-19T16:53:05.076Z,99.50
2023-01-19T16:55:45.118Z,92.20
2023-01-19T16:58:17.195Z,99.50
2023-01-19T17:00:47.946Z,105.20
2023-01-19T17:03:18.563Z,96.80
2023-01-19T17:05:58.279Z,100.80
2023-01-19T17:08:28.815Z,103.60
2023-01-19T17:11:02.861Z,100.10
2023-01-19T17:13:33.902Z,97.00
2023-01-19T17:16:05.749Z,100.60
2023-01-19T17:18:38.811Z,93.40
2023-01-19T17:21:10.863Z,99.30
2023-01-19T17:23:45.342Z,93.50
2023-01-19T17:26:16.678Z,99.60
2023-01-19T17:28:48.665Z,98.60
2023-01-19T17:31:21.118Z,93.90
2023-01-19T17:33:51.999Z,91.50
2023-01-19T17:36:25.353Z,101.30
2023-01-19T17:38:58.718Z,98.60
2023-01-19T17:41:31.026Z,95.70
2023-01-19T17:44:03.495Z,74.30
2023-01-19T17:46:37.236Z,71.90
2023-01-19T17:49:08.702Z,93.80
2023-01-19T17:51:39.115Z,95.20
2023-01-19T17:54:10.606Z,93.90
2023-01-19T17:56:41.510Z,99.30
2023-01-19T17:59:12.912Z,83.90
2023-01-19T18:01:45.263Z,86.90
2023-01-19T18:04:16.754Z,97.60
2023-01-19T18:06:49.839Z,65.10
2023-01-19T18:09:22.121Z,87.90
2023-01-19T18:11:54.929Z,90.90
2023-01-19T18:14:26.103Z,89.10
2023-01-19T18:16:57.492Z,102.40
2023-01-19T18:19:29.196Z,99.10
2023-01-19T18:21:59.608Z,89.00
2023-01-19T18:24:30.330Z,94.30
2023-01-19T18:27:04.825Z,92.80
2023-01-19T18:29:36.897Z,100.50
2023-01-19T18:32:08.419Z,96.30
2023-01-19T18:34:40.960Z,93.70
2023-01-19T18:37:15.393Z,87.30
2023-01-19T18:39:46.225Z,98.20
2023-01-19T18:42:16.846Z,94.60
2023-01-19T18:44:47.502Z,91.60
2023-01-19T18:47:18.038Z,99.10
2023-01-19T18:49:48.820Z,101.60
2023-01-19T18:52:19.478Z,87.10
2023-01-19T18:54:50.830Z,91.30
2023-01-19T18:57:21.629Z,99.60
2023-01-19T18:59:53.015Z,92.70
2023-01-19T19:02:24.149Z,95.80
2023-01-19T19:04:54.382Z,83.30
2023-01-19T19:07:27.462Z,86.00
2023-01-19T19:09:57.936Z,95.00
2023-01-19T19:12:28.800Z,86.60
2023-01-19T19:14:59.290Z,97.40
2023-01-19T19:17:31.493Z,61.20
2023-01-19T19:20:02.623Z,86.90
2023-01-19T19:25:02.806Z,90.40
2023-01-19T19:27:33.461Z,89.10
2023-01-19T19:30:04.698Z,95.40
2023-01-19T19:32:35.362Z,85.70
2023-01-19T19:35:08.050Z,81.30
2023-01-19T19:37:38.393Z,95.20
2023-01-19T19:40:11.713Z,78.90
2023-01-19T19:42:44.520Z,89.50
2023-01-19T19:45:15.494Z,94.00
2023-01-19T19:47:46.129Z,85.00
2023-01-19T19:50:17.598Z,95.20
2023-01-19T19:52:49.735Z,91.00
2023-01-19T19:55:20.423Z,98.20
2023-01-19T19:57:51.047Z,85.10
2023-01-19T20:00:22.524Z,86.70
2023-01-19T20:02:53.534Z,94.20
2023-01-19T20:05:24.660Z,86.10
2023-01-19T20:07:54.989Z,95.80
2023-01-19T20:10:26.539Z,84.10
2023-01-19T20:12:56.911Z,82.50
2023-01-19T20:15:29.340Z,81.00
2023-01-19T20:18:00.210Z,90.20
2023-01-19T20:20:30.480Z,91.40
2023-01-19T20:23:01.371Z,91.40
2023-01-19T20:25:31.635Z,86.60
2023-01-19T20:28:02.604Z,91.40
2023-01-19T20:30:33.964Z,85.80
2023-01-19T20:33:05.068Z,83.70
2023-01-19T20:35:35.832Z,90.00
2023-01-19T20:38:09.316Z,85.40
2023-01-19T20:40:40.786Z,86.30
2023-01-19T20:43:12.754Z,82.10
2023-01-19T20:45:44.339Z,89.70
2023-01-19T20:48:15.047Z,89.40
2023-01-19T20:50:45.314Z,84.90
2023-01-19T20:53:16.322Z,83.30
2023-01-19T20:55:46.936Z,91.60
2023-01-19T20:58:17.938Z,88.30
2023-01-19T21:00:48.442Z,93.50
2023-01-19T21:03:20.020Z,88.70
2023-01-19T21:05:50.394Z,86.20
2023-01-19T21:08:20.889Z,93.40
2023-01-19T21:10:51.524Z,91.00
2023-01-19T21:13:22.500Z,80.20
2023-01-19T21:18:22.376Z,71.90
2023-01-19T21:20:53.018Z,72.50
2023-01-19T21:23:23.488Z,69.20
2023-01-19T21:25:56.127Z,68.80
2023-01-19T21:28:27.169Z,65.40
2023-01-19T21:30:58.071Z,69.70
2023-01-19T21:33:28.499Z,62.70
2023-01-19T21:35:59.561Z,62.30
2023-01-19T21:41:05.269Z,60.00
2023-01-19T21:43:38.645Z,59.40
2023-01-19T21:46:13.478Z,68.80
2023-01-19T21:48:46.945Z,65.20
2023-01-19T21:51:17.851Z,66.30
2023-01-19T21:56:18.000Z,59.80
2023-01-19T21:58:48.425Z,66.40
2023-01-19T22:01:19.469Z,63.30
2023-01-19T22:06:19.582Z,53.90
2023-01-19T22:08:50.004Z,65.00
2023-01-19T22:11:21.434Z,63.10
2023-01-19T22:13:52.053Z,77.40
2023-01-19T22:18:56.026Z,60.30
2023-01-19T22:21:27.207Z,57.40
2023-01-19T22:23:59.972Z,64.30
2023-01-19T22:26:31.651Z,59.30
2023-01-19T22:29:03.148Z,55.60
2023-01-19T22:31:33.598Z,50.10
2023-01-19T22:34:04.016Z,57.40
2023-01-19T22:36:34.765Z,58.30
2023-01-19T22:39:06.894Z,55.90
2023-01-19T22:41:39.274Z,58.20
2023-01-19T22:44:14.113Z,53.80
2023-01-19T22:46:46.329Z,54.70
2023-01-19T22:49:17.539Z,49.60
2023-01-19T22:51:48.424Z,49.00
2023-01-19T22:56:48.164Z,61.10
2023-01-19T22:59:18.767Z,58.60
2023-01-19T23:01:51.254Z,54.70
2023-01-19T23:04:21.767Z,79.20
2023-01-19T23:06:53.208Z,60.40
2023-01-19T23:09:23.966Z,57.80
2023-01-19T23:11:54.216Z,50.50
2023-01-19T23:14:24.682Z,49.80
2023-01-19T23:16:57.917Z,53.90
2023-01-19T23:19:28.187Z,50.20
2023-01-19T23:21:58.723Z,52.80
2023-01-19T23:24:30.200Z,60.80
2023-01-19T23:27:02.276Z,57.50
2023-01-19T23:29:32.679Z,59.40
2023-01-19T23:32:03.417Z,53.80
2023-01-19T23:34:34.245Z,55.00
2023-01-19T23:37:05.112Z,53.20
2023-01-19T23:42:05.348Z,51.20
2023-01-19T23:47:04.799Z,53.20
2023-01-19T23:49:34.950Z,60.10
2023-01-19T23:52:05.600Z,56.70
2023-01-19T23:54:36.420Z,52.50
2023-01-19T23:57:06.660Z,57.60
2023-01-19T23:59:37.051Z,51.00
